createdAt,value
2022-08-21T00:02:22.080Z,98100.06
2022-08-21T00:06:24.913Z,98102.81
2022-08-21T00:10:27.433Z,98090.53
2022-08-21T00:14:31.999Z,98089.75
2022-08-21T00:18:34.524Z,98090.16
2022-08-21T00:22:37.966Z,98090.03
2022-08-21T00:26:40.086Z,98084.47
2022-08-21T00:30:43.511Z,98081.53
2022-08-21T00:34:45.540Z,98080.16
2022-08-21T00:38:47.778Z,98074.47
2022-08-21T00:42:53.741Z,98078.53
2022-08-21T00:46:56.027Z,98076.56
2022-08-21T00:51:03.475Z,98081.84
2022-08-21T00:55:09.286Z,98082.91
2022-08-21T00:59:12.073Z,98076.19
2022-08-21T01:03:16.611Z,98073.31
2022-08-21T01:07:18.934Z,98074.25
2022-08-21T01:11:22.355Z,98060.88
2022-08-21T01:15:28.098Z,98064.88
2022-08-21T01:19:30.936Z,98072.66
2022-08-21T01:23:34.158Z,98066.88
2022-08-21T01:27:37.087Z,98073.25
2022-08-21T01:31:39.825Z,98069.03
2022-08-21T01:35:41.930Z,98070.56
2022-08-21T01:39:44.653Z,98068.59
2022-08-21T01:43:47.077Z,98076.75
2022-08-21T01:47:49.209Z,98070.28
2022-08-21T01:51:51.548Z,98072.25
2022-08-21T01:55:53.701Z,98065.47
2022-08-21T01:59:55.824Z,98062.75
2022-08-21T02:03:58.161Z,98061.75
2022-08-21T02:08:00.288Z,98056.06
2022-08-21T02:12:02.453Z,98055.69
2022-08-21T02:16:05.208Z,98054.84
2022-08-21T02:20:08.221Z,98051.69
2022-08-21T02:24:12.439Z,98053.84
2022-08-21T02:28:15.765Z,98054.44
2022-08-21T02:32:17.981Z,98049.91
2022-08-21T02:36:20.206Z,98049.06
2022-08-21T02:40:25.214Z,98055.09
2022-08-21T02:44:34.428Z,98052.59
2022-08-21T02:48:37.728Z,98045.47
2022-08-21T02:52:39.820Z,98048.56
2022-08-21T02:56:41.930Z,98039.97
2022-08-21T03:00:45.147Z,98044.72
2022-08-21T03:04:47.205Z,98048.41
2022-08-21T03:08:50.400Z,98039.13
2022-08-21T03:12:52.847Z,98041.84
2022-08-21T03:16:54.922Z,98036.53
2022-08-21T03:20:57.029Z,98046.47
2022-08-21T03:25:00.264Z,98047.00
2022-08-21T03:29:02.373Z,98040.88
2022-08-21T03:33:04.831Z,98035.78
2022-08-21T03:37:08.181Z,98042.28
2022-08-21T03:41:10.270Z,98044.31
2022-08-21T03:45:12.339Z,98041.81
2022-08-21T03:49:14.426Z,98049.91
2022-08-21T03:53:18.043Z,98049.59
2022-08-21T03:57:20.280Z,98049.34
2022-08-21T04:01:22.493Z,98056.03
2022-08-21T04:05:31.074Z,98063.66
2022-08-21T04:09:33.152Z,98063.66
2022-08-21T04:13:35.379Z,98067.72
2022-08-21T04:17:46.505Z,98070.84
2022-08-21T04:21:48.568Z,98070.03
2022-08-21T04:25:52.426Z,98073.97
2022-08-21T04:29:54.497Z,98078.41
2022-08-21T04:33:57.878Z,98084.88
2022-08-21T04:38:00.077Z,98086.09
2022-08-21T04:42:02.181Z,98093.75
2022-08-21T04:46:04.347Z,98087.91
2022-08-21T04:50:06.972Z,98100.91
2022-08-21T04:54:19.873Z,98102.59
2022-08-21T04:58:26.362Z,98098.03
2022-08-21T05:02:28.431Z,98094.31
2022-08-21T05:06:34.796Z,98099.66
2022-08-21T05:10:36.938Z,98092.72
2022-08-21T05:14:39.269Z,98099.38
2022-08-21T05:18:41.340Z,98107.44
2022-08-21T05:22:43.747Z,98107.84
2022-08-21T05:26:47.043Z,98110.41
2022-08-21T05:30:50.492Z,98110.31
2022-08-21T05:34:52.603Z,98113.66
2022-08-21T05:38:54.867Z,98101.78
2022-08-21T05:42:57.938Z,98105.13
2022-08-21T05:47:08.668Z,98103.44
2022-08-21T05:51:14.725Z,98102.66
2022-08-21T05:55:16.840Z,98098.09
2022-08-21T05:59:19.180Z,98100.72
2022-08-21T06:03:25.351Z,98097.56
2022-08-21T06:07:27.625Z,98100.22
2022-08-21T06:11:29.748Z,98102.72
2022-08-21T06:15:31.817Z,98103.69
2022-08-21T06:19:34.319Z,98096.31
2022-08-21T06:23:36.679Z,98093.94
2022-08-21T06:27:39.004Z,98097.16
2022-08-21T06:31:41.693Z,98085.59
2022-08-21T06:35:43.823Z,98084.09
2022-08-21T06:39:45.956Z,98081.69
2022-08-21T06:43:48.184Z,98078.72
2022-08-21T06:47:50.343Z,98086.59
2022-08-21T06:51:52.446Z,98080.72
2022-08-21T06:55:54.532Z,98091.09
2022-08-21T06:59:56.607Z,98081.66
2022-08-21T07:03:59.416Z,98078.94
2022-08-21T07:08:01.523Z,98080.91
2022-08-21T07:12:04.312Z,98078.66
2022-08-21T07:16:06.664Z,98085.75
2022-08-21T07:20:09.066Z,98085.59
2022-08-21T07:24:11.427Z,98075.56
2022-08-21T07:28:13.546Z,98078.38
2022-08-21T07:32:19.615Z,98080.47
2022-08-21T07:36:23.663Z,98082.34
2022-08-21T07:40:26.271Z,98082.31
2022-08-21T07:44:28.564Z,98076.91
2022-08-21T07:48:30.636Z,98072.78
2022-08-21T07:52:33.638Z,98066.44
2022-08-21T07:56:35.767Z,98064.63
2022-08-21T08:00:37.940Z,98056.78
2022-08-21T08:04:50.635Z,98059.44
2022-08-21T08:08:53.196Z,98069.31
2022-08-21T08:12:55.728Z,98056.50
2022-08-21T08:16:58.028Z,98060.03
2022-08-21T08:21:00.378Z,98048.78
2022-08-21T08:25:06.418Z,98061.63
2022-08-21T08:29:11.358Z,98049.53
2022-08-21T08:33:14.966Z,98052.38
2022-08-21T08:37:17.323Z,98049.41
2022-08-21T08:41:23.660Z,98051.66
2022-08-21T08:45:27.303Z,98048.00
2022-08-21T08:49:41.215Z,98040.09
2022-08-21T08:53:50.428Z,98039.25
2022-08-21T08:57:54.123Z,98040.41
2022-08-21T09:01:56.203Z,98032.25
2022-08-21T09:06:09.438Z,98035.06
2022-08-21T09:10:19.021Z,98038.53
2022-08-21T09:14:47.340Z,98035.56
2022-08-21T09:19:04.172Z,98030.88
2022-08-21T09:23:24.893Z,98031.81
2022-08-21T09:27:26.940Z,98035.41
2022-08-21T09:31:33.489Z,98025.41
2022-08-21T09:35:38.071Z,98012.41
2022-08-21T09:39:45.583Z,98031.66
2022-08-21T09:43:54.722Z,98021.09
2022-08-21T09:47:56.932Z,98020.00
2022-08-21T09:52:00.414Z,98010.78
2022-08-21T09:56:35.810Z,98018.94
2022-08-21T10:00:38.252Z,98010.66
2022-08-21T10:04:42.657Z,98008.22
2022-08-21T10:08:44.782Z,97997.81
2022-08-21T10:13:25.768Z,98000.56
2022-08-21T10:17:45.963Z,97999.03
2022-08-21T10:22:08.109Z,98000.06
2022-08-21T10:26:36.971Z,97995.28
2022-08-21T10:30:53.808Z,97984.34
2022-08-21T10:35:11.174Z,97998.28
2022-08-21T10:39:35.815Z,97988.78
2022-08-21T10:43:54.737Z,97989.34
2022-08-21T10:48:04.932Z,97980.31
2022-08-21T10:52:34.694Z,97980.44
2022-08-21T10:56:41.454Z,97969.03
2022-08-21T11:00:48.319Z,97973.47
2022-08-21T11:05:03.434Z,97960.13
2022-08-21T11:09:18.455Z,97966.75
2022-08-21T11:13:42.598Z,97965.44
2022-08-21T11:17:51.498Z,97964.72
2022-08-21T11:22:01.360Z,97960.25
2022-08-21T11:26:09.740Z,97956.97
2022-08-21T11:30:13.022Z,97959.16
2022-08-21T11:34:23.901Z,97958.19
2022-08-21T11:38:35.766Z,97948.34
2022-08-21T11:42:40.819Z,97948.75
2022-08-21T11:46:54.871Z,97945.72
2022-08-21T11:50:59.118Z,97938.72
2022-08-21T11:55:23.678Z,97929.97
2022-08-21T11:59:44.201Z,97925.66
2022-08-21T12:04:07.440Z,97938.50
2022-08-21T12:08:28.690Z,97934.00
2022-08-21T12:12:36.886Z,97925.91
2022-08-21T12:16:47.319Z,97922.41
2022-08-21T12:21:06.143Z,97920.13
2022-08-21T12:25:12.344Z,97927.22
2022-08-21T12:29:24.904Z,97932.13
2022-08-21T12:33:32.922Z,97929.47
2022-08-21T12:37:42.121Z,97928.66
2022-08-21T12:42:06.414Z,97928.81
2022-08-21T12:46:18.190Z,97910.63
2022-08-21T12:50:39.081Z,97925.06
2022-08-21T12:54:43.200Z,97916.53
2022-08-21T12:58:47.970Z,97921.75
2022-08-21T13:02:51.894Z,97919.19
2022-08-21T13:06:56.183Z,97914.53
2022-08-21T13:11:09.159Z,97900.09
2022-08-21T13:15:22.929Z,97918.22
2022-08-21T13:19:27.720Z,97898.56
2022-08-21T13:23:31.133Z,97891.66
2022-08-21T13:27:33.187Z,97896.06
2022-08-21T13:31:35.274Z,97898.72
2022-08-21T13:35:48.486Z,97887.31
2022-08-21T13:39:53.277Z,97889.97
2022-08-21T13:44:03.274Z,97886.28
2022-08-21T13:48:06.849Z,97877.22
2022-08-21T13:52:26.644Z,97887.97
2022-08-21T13:56:33.890Z,97868.44
2022-08-21T14:00:49.658Z,97861.66
2022-08-21T14:05:01.000Z,97868.88
2022-08-21T14:09:11.417Z,97869.06
2022-08-21T14:13:35.863Z,97868.72
2022-08-21T14:17:42.570Z,97862.91
2022-08-21T14:21:45.239Z,97862.59
2022-08-21T14:25:47.344Z,97857.19
2022-08-21T14:29:49.451Z,97849.38
2022-08-21T14:33:51.608Z,97850.84
2022-08-21T14:37:55.066Z,97846.78
2022-08-21T14:41:58.508Z,97848.78
2022-08-21T14:46:02.225Z,97850.31
2022-08-21T14:50:04.628Z,97845.13
2022-08-21T14:54:08.233Z,97839.44
2022-08-21T14:58:10.691Z,97840.44
2022-08-21T15:02:12.858Z,97829.34
2022-08-21T15:06:18.440Z,97832.81
2022-08-21T15:10:20.542Z,97841.91
2022-08-21T15:14:28.559Z,97841.75
2022-08-21T15:18:31.353Z,97852.34
2022-08-21T15:22:34.455Z,97843.78
2022-08-21T15:26:37.467Z,97841.91
2022-08-21T15:30:41.139Z,97849.25
2022-08-21T15:34:43.226Z,97840.03
2022-08-21T15:38:46.201Z,97834.16
2022-08-21T15:42:48.341Z,97842.03
2022-08-21T15:46:50.423Z,97836.84
2022-08-21T15:50:52.488Z,97837.19
2022-08-21T15:54:55.151Z,97834.34
2022-08-21T15:59:13.091Z,97838.19
2022-08-21T16:03:20.677Z,97832.81
2022-08-21T16:07:22.916Z,97828.44
2022-08-21T16:11:25.443Z,97835.50
2022-08-21T16:15:27.997Z,97833.84
2022-08-21T16:19:30.221Z,97830.50
2022-08-21T16:23:32.249Z,97827.81
2022-08-21T16:27:35.788Z,97815.88
2022-08-21T16:31:40.014Z,97825.09
2022-08-21T16:35:42.083Z,97816.38
2022-08-21T16:39:44.754Z,97815.22
2022-08-21T16:43:48.702Z,97812.53
2022-08-21T16:47:51.339Z,97811.72
2022-08-21T16:51:53.436Z,97809.34
2022-08-21T16:55:55.528Z,97806.63
2022-08-21T16:59:57.758Z,97799.25
2022-08-21T17:04:00.532Z,97803.56
2022-08-21T17:08:02.815Z,97797.16
2022-08-21T17:12:05.924Z,97795.81
2022-08-21T17:16:08.106Z,97794.91
2022-08-21T17:20:10.561Z,97794.88
2022-08-21T17:24:15.404Z,97798.03
2022-08-21T17:28:23.584Z,97789.94
2022-08-21T17:32:25.903Z,97783.88
2022-08-21T17:36:30.077Z,97782.81
2022-08-21T17:40:32.231Z,97786.19
2022-08-21T17:44:41.338Z,97795.03
2022-08-21T17:48:47.293Z,97789.78
2022-08-21T17:52:49.885Z,97791.72
2022-08-21T17:56:52.917Z,97799.63
2022-08-21T18:00:55.142Z,97798.13
2022-08-21T18:04:58.184Z,97799.91
2022-08-21T18:09:00.681Z,97800.41
2022-08-21T18:13:05.811Z,97800.00
2022-08-21T18:17:18.385Z,97814.59
2022-08-21T18:21:21.048Z,97817.16
2022-08-21T18:25:23.322Z,97814.94
2022-08-21T18:29:25.485Z,97828.59
2022-08-21T18:33:27.924Z,97825.09
2022-08-21T18:37:30.081Z,97836.19
2022-08-21T18:41:32.227Z,97835.75
2022-08-21T18:45:36.917Z,97835.88
2022-08-21T18:49:39.051Z,97834.34
2022-08-21T18:53:43.189Z,97835.69
2022-08-21T18:57:48.770Z,97840.44
2022-08-21T19:01:50.857Z,97848.94
2022-08-21T19:05:54.139Z,97855.34
2022-08-21T19:10:24.252Z,97853.19
2022-08-21T19:14:18.545Z,97853.16
2022-08-21T19:18:28.233Z,97866.59
2022-08-21T19:22:30.830Z,97868.09
2022-08-21T19:26:34.801Z,97873.63
2022-08-21T19:30:39.249Z,97871.28
2022-08-21T19:34:42.662Z,97861.28
2022-08-21T19:38:44.904Z,97865.22
2022-08-21T19:42:47.169Z,97875.31
2022-08-21T19:46:52.041Z,97881.88
2022-08-21T19:50:54.094Z,97872.00
2022-08-21T19:54:56.209Z,97877.53
2022-08-21T19:58:58.597Z,97876.09
2022-08-21T20:03:00.997Z,97879.94
2022-08-21T20:07:04.520Z,97870.53
2022-08-21T20:11:13.118Z,97876.31
2022-08-21T20:15:21.808Z,97869.34
2022-08-21T20:19:23.881Z,97880.47
2022-08-21T20:23:30.024Z,97879.75
2022-08-21T20:27:32.694Z,97887.97
2022-08-21T20:31:42.806Z,97887.41
2022-08-21T20:35:48.479Z,97896.59
2022-08-21T20:39:50.858Z,97886.19
2022-08-21T20:43:56.830Z,97894.88
2022-08-21T20:48:04.378Z,97893.66
2022-08-21T20:52:07.737Z,97899.66
2022-08-21T20:56:37.212Z,97910.97
2022-08-21T21:00:43.572Z,97905.22
2022-08-21T21:05:00.242Z,97910.44
2022-08-21T21:09:13.616Z,97907.22
2022-08-21T21:13:22.909Z,97902.09
2022-08-21T21:17:38.321Z,97910.44
2022-08-21T21:21:56.866Z,97908.72
2022-08-21T21:26:06.798Z,97904.88
2022-08-21T21:30:12.046Z,97916.22
2022-08-21T21:34:16.951Z,97924.22
2022-08-21T21:38:51.658Z,97927.81
2022-08-21T21:43:10.156Z,97930.63
2022-08-21T21:47:36.365Z,97929.03
2022-08-21T21:51:51.632Z,97930.72
2022-08-21T21:56:09.237Z,97926.63
2022-08-21T22:00:19.295Z,97929.66
2022-08-21T22:04:39.269Z,97930.00
2022-08-21T22:09:09.329Z,97929.50
2022-08-21T22:13:26.684Z,97934.94
2022-08-21T22:17:34.458Z,97933.28
2022-08-21T22:21:42.477Z,97941.81
2022-08-21T22:25:50.128Z,97940.59
2022-08-21T22:29:57.344Z,97933.94
2022-08-21T22:38:40.932Z,97924.59
2022-08-21T22:42:43.139Z,97930.09
2022-08-21T22:46:51.422Z,97927.75
2022-08-21T22:51:00.666Z,97926.13
2022-08-21T22:55:16.879Z,97926.44
2022-08-21T22:59:31.905Z,97926.13
2022-08-21T23:03:57.216Z,97929.13
2022-08-21T23:08:14.123Z,97925.44
2022-08-21T23:12:33.927Z,97926.53
2022-08-21T23:16:53.747Z,97928.28
2022-08-21T23:21:19.000Z,97937.69
2022-08-21T23:25:21.010Z,97938.75
2022-08-21T23:29:41.893Z,97929.59
2022-08-21T23:34:07.165Z,97932.56
2022-08-21T23:38:23.015Z,97934.06
2022-08-21T23:42:47.277Z,97934.47
2022-08-21T23:47:03.911Z,97932.97
2022-08-21T23:51:13.068Z,97940.81
2022-08-21T23:55:24.753Z,97933.66
2022-08-21T23:59:55.680Z,97940.91
